createdAt,value
2023-03-16T00:01:49.213Z,0.65
2023-03-16T00:04:16.111Z,0.70
2023-03-16T00:06:43.116Z,0.88
2023-03-16T00:09:10.301Z,0.53
2023-03-16T00:11:38.737Z,0.40
2023-03-16T00:14:05.777Z,0.63
2023-03-16T00:16:32.686Z,0.73
2023-03-16T00:18:59.719Z,0.57
2023-03-16T00:21:26.722Z,0.60
2023-03-16T00:23:53.649Z,0.38
2023-03-16T00:26:20.593Z,0.90
2023-03-16T00:28:48.974Z,0.80
2023-03-16T00:31:16.033Z,1.15
2023-03-16T00:33:43.151Z,0.83
2023-03-16T00:36:11.768Z,0.60
2023-03-16T00:38:39.364Z,0.80
2023-03-16T00:41:07.504Z,1.70
2023-03-16T00:43:41.371Z,0.88
2023-03-16T00:46:11.548Z,0.90
2023-03-16T00:48:40.034Z,0.90
2023-03-16T00:51:08.054Z,1.00
2023-03-16T00:53:36.415Z,0.77
2023-03-16T00:56:04.536Z,0.98
2023-03-16T00:58:35.997Z,0.87
2023-03-16T01:01:03.044Z,0.88
2023-03-16T01:03:31.709Z,0.77
2023-03-16T01:06:01.815Z,0.63
2023-03-16T01:08:28.778Z,0.65
2023-03-16T01:10:55.765Z,0.30
2023-03-16T01:13:22.702Z,0.88
2023-03-16T01:15:50.503Z,0.65
2023-03-16T01:18:17.489Z,0.60
2023-03-16T01:20:50.822Z,0.80
2023-03-16T01:23:18.130Z,0.40
2023-03-16T01:25:53.068Z,0.60
2023-03-16T01:28:21.494Z,1.00
2023-03-16T01:30:49.172Z,0.55
2023-03-16T01:33:16.379Z,0.45
2023-03-16T01:35:43.368Z,1.30
2023-03-16T01:38:11.697Z,0.73
2023-03-16T01:40:38.684Z,0.68
2023-03-16T01:43:07.408Z,0.60
2023-03-16T01:45:53.297Z,0.40
2023-03-16T01:48:23.158Z,0.60
2023-03-16T01:50:52.624Z,1.10
2023-03-16T01:53:22.216Z,0.68
2023-03-16T01:55:49.680Z,0.60
2023-03-16T01:58:17.601Z,0.30
2023-03-16T02:00:45.851Z,0.70
2023-03-16T02:03:14.076Z,0.75
2023-03-16T02:05:43.801Z,1.23
2023-03-16T02:08:12.657Z,0.80
2023-03-16T02:10:41.355Z,0.40
2023-03-16T02:13:08.617Z,0.50
2023-03-16T02:15:36.263Z,0.50
2023-03-16T02:18:04.305Z,0.52
2023-03-16T02:20:36.360Z,0.55
2023-03-16T02:23:07.473Z,0.75
2023-03-16T02:25:39.917Z,0.90
2023-03-16T02:28:15.504Z,0.60
2023-03-16T02:30:44.023Z,1.20
2023-03-16T02:33:11.633Z,0.77
2023-03-16T02:35:38.642Z,1.40
2023-03-16T02:38:06.348Z,0.50
2023-03-16T02:40:34.128Z,1.70
2023-03-16T02:43:04.560Z,1.60
2023-03-16T02:45:35.927Z,2.15
2023-03-16T02:48:07.561Z,1.38
2023-03-16T02:50:34.580Z,1.30
2023-03-16T02:53:01.479Z,1.67
2023-03-16T02:55:28.548Z,2.25
2023-03-16T02:57:55.470Z,1.88
2023-03-16T03:00:22.665Z,1.60
2023-03-16T03:02:49.972Z,1.10
2023-03-16T03:05:18.431Z,2.30
2023-03-16T03:07:45.389Z,1.42
2023-03-16T03:10:12.421Z,1.20
2023-03-16T03:12:39.436Z,1.42
2023-03-16T03:15:07.164Z,2.07
2023-03-16T03:17:34.139Z,2.10
2023-03-16T03:20:02.550Z,2.33
2023-03-16T03:22:30.959Z,1.95
2023-03-16T03:24:57.918Z,2.00
2023-03-16T03:27:24.847Z,2.60
2023-03-16T03:29:52.768Z,2.30
2023-03-16T03:32:19.708Z,1.77
2023-03-16T03:34:46.722Z,2.35
2023-03-16T03:37:13.659Z,2.10
2023-03-16T03:39:43.033Z,2.43
2023-03-16T03:42:10.078Z,2.03
2023-03-16T03:44:37.338Z,2.45
2023-03-16T03:47:04.385Z,2.25
2023-03-16T03:49:31.582Z,2.58
2023-03-16T03:51:59.340Z,2.40
2023-03-16T03:54:28.636Z,2.25
2023-03-16T03:56:57.227Z,2.38
2023-03-16T03:59:24.156Z,2.60
2023-03-16T04:01:53.875Z,2.72
2023-03-16T04:04:21.004Z,2.70
2023-03-16T04:06:48.028Z,2.47
2023-03-16T04:09:15.093Z,3.10
2023-03-16T04:11:42.329Z,2.55
2023-03-16T04:14:10.961Z,2.97
2023-03-16T04:16:38.031Z,3.10
2023-03-16T04:19:05.072Z,3.08
2023-03-16T04:21:32.204Z,3.00
2023-03-16T04:23:59.171Z,3.03
2023-03-16T04:26:26.281Z,3.25
2023-03-16T04:28:53.286Z,3.40
2023-03-16T04:31:21.627Z,3.40
2023-03-16T04:33:48.648Z,3.78
2023-03-16T04:36:15.711Z,3.35
2023-03-16T04:38:43.572Z,3.92
2023-03-16T04:41:11.514Z,3.40
2023-03-16T04:43:38.612Z,3.45
2023-03-16T04:46:06.852Z,3.42
2023-03-16T04:48:35.436Z,3.30
2023-03-16T04:51:06.179Z,3.17
2023-03-16T04:53:33.158Z,3.07
2023-03-16T04:56:00.217Z,3.58
2023-03-16T04:58:27.187Z,3.47
2023-03-16T05:00:55.515Z,3.55
2023-03-16T05:03:22.917Z,3.20
2023-03-16T05:05:51.532Z,2.83
2023-03-16T05:08:19.227Z,3.08
2023-03-16T05:10:48.239Z,2.58
2023-03-16T05:13:15.911Z,3.95
2023-03-16T05:15:42.952Z,3.38
2023-03-16T05:18:10.279Z,3.80
2023-03-16T05:20:37.342Z,4.20
2023-03-16T05:23:08.281Z,17.17
2023-03-16T05:25:35.324Z,4.97
2023-03-16T05:28:03.897Z,3.95
2023-03-16T05:30:43.893Z,4.10
2023-03-16T05:33:14.524Z,3.67
2023-03-16T05:35:41.606Z,3.60
2023-03-16T05:38:10.302Z,4.65
2023-03-16T05:40:37.506Z,3.70
2023-03-16T05:43:04.657Z,4.17
2023-03-16T05:45:31.667Z,3.40
2023-03-16T05:47:58.809Z,3.95
2023-03-16T05:50:26.805Z,5.47
2023-03-16T05:52:54.356Z,3.90
2023-03-16T05:55:23.594Z,4.97
2023-03-16T05:57:51.223Z,4.47
2023-03-16T06:00:18.942Z,4.35
2023-03-16T06:02:49.168Z,5.30
2023-03-16T06:05:16.777Z,4.40
2023-03-16T06:07:43.692Z,3.83
2023-03-16T06:10:11.677Z,5.00
2023-03-16T06:12:40.493Z,4.65
2023-03-16T06:15:08.261Z,3.80
2023-03-16T06:17:35.312Z,2.85
2023-03-16T06:20:02.565Z,3.73
2023-03-16T06:22:30.540Z,4.20
2023-03-16T06:24:57.826Z,4.32
2023-03-16T06:27:26.671Z,4.68
2023-03-16T06:29:55.149Z,4.47
2023-03-16T06:32:22.342Z,4.43
2023-03-16T06:34:49.340Z,3.80
2023-03-16T06:37:19.343Z,4.05
2023-03-16T06:39:46.429Z,4.90
2023-03-16T06:42:13.534Z,5.45
2023-03-16T06:44:45.833Z,3.63
2023-03-16T06:47:14.525Z,6.22
2023-03-16T06:49:48.416Z,2.92
2023-03-16T06:52:46.081Z,2.03
2023-03-16T06:55:14.579Z,4.57
2023-03-16T06:57:42.362Z,3.33
2023-03-16T07:00:11.300Z,4.25
2023-03-16T07:05:33.281Z,3.53
2023-03-16T07:08:00.196Z,4.05
2023-03-16T07:10:27.823Z,3.80
2023-03-16T07:12:58.441Z,3.30
2023-03-16T07:15:26.877Z,2.30
2023-03-16T07:17:55.455Z,2.78
2023-03-16T07:20:23.757Z,2.42
2023-03-16T07:22:50.970Z,2.70
2023-03-16T07:25:18.660Z,3.42
2023-03-16T07:27:47.652Z,4.00
2023-03-16T07:30:14.802Z,3.33
2023-03-16T07:32:42.175Z,3.08
2023-03-16T07:35:14.189Z,3.67
2023-03-16T07:37:42.316Z,4.00
2023-03-16T07:40:10.433Z,3.20
2023-03-16T07:42:37.852Z,4.50
2023-03-16T07:45:08.268Z,3.55
2023-03-16T07:47:35.324Z,4.23
2023-03-16T07:50:05.728Z,2.78
2023-03-16T07:52:35.869Z,3.40
2023-03-16T07:55:05.499Z,2.95
2023-03-16T07:57:32.773Z,2.00
2023-03-16T07:59:59.769Z,3.43
2023-03-16T08:02:26.819Z,3.70
2023-03-16T08:04:54.153Z,2.25
2023-03-16T08:07:45.130Z,2.30
2023-03-16T08:10:57.962Z,3.70
2023-03-16T08:13:39.423Z,3.20
2023-03-16T08:16:10.514Z,4.55
2023-03-16T08:18:51.873Z,4.85
2023-03-16T08:21:26.212Z,2.80
2023-03-16T08:23:53.720Z,4.13
2023-03-16T08:26:21.265Z,9.03
2023-03-16T08:28:52.141Z,10.38
2023-03-16T08:31:20.086Z,4.10
2023-03-16T08:33:48.148Z,4.93
2023-03-16T08:36:16.147Z,2.90
2023-03-16T08:38:53.536Z,4.40
2023-03-16T08:41:30.754Z,2.65
2023-03-16T08:44:00.024Z,2.90
2023-03-16T08:46:30.164Z,3.47
2023-03-16T08:48:57.280Z,3.78
2023-03-16T08:51:25.027Z,3.60
2023-03-16T08:53:59.635Z,2.53
2023-03-16T08:56:26.731Z,2.58
2023-03-16T08:59:29.197Z,1.67
2023-03-16T09:06:23.381Z,1.33
2023-03-16T09:09:18.810Z,1.67
2023-03-16T09:13:15.687Z,2.20
2023-03-16T09:15:56.641Z,1.88
2023-03-16T09:18:26.246Z,1.80
2023-03-16T09:21:09.332Z,1.87
2023-03-16T09:23:38.789Z,1.20
2023-03-16T09:26:28.595Z,1.88
2023-03-16T09:29:01.537Z,1.85
2023-03-16T09:31:37.803Z,1.75
2023-03-16T09:34:05.379Z,1.57
2023-03-16T09:36:33.852Z,1.67
2023-03-16T09:39:03.819Z,1.13
2023-03-16T09:45:38.039Z,0.75
2023-03-16T09:48:14.768Z,0.90
2023-03-16T09:50:48.895Z,1.80
2023-03-16T09:54:02.512Z,1.50
2023-03-16T09:56:34.243Z,0.80
2023-03-16T09:59:01.870Z,1.58
2023-03-16T10:01:39.127Z,3.37
2023-03-16T10:04:17.108Z,2.60
2023-03-16T10:06:48.795Z,2.88
2023-03-16T10:09:30.229Z,1.73
2023-03-16T10:12:00.904Z,1.70
2023-03-16T10:14:37.435Z,1.67
2023-03-16T10:17:09.776Z,1.27
2023-03-16T10:19:39.324Z,1.10
2023-03-16T10:22:13.693Z,1.05
2023-03-16T10:24:44.468Z,1.70
2023-03-16T10:27:16.179Z,1.67
2023-03-16T10:29:43.087Z,1.77
2023-03-16T10:32:16.911Z,1.60
2023-03-16T10:34:45.419Z,1.10
2023-03-16T10:37:15.444Z,0.63
2023-03-16T10:39:45.301Z,1.20
2023-03-16T10:42:16.996Z,1.10
2023-03-16T10:44:45.198Z,1.77
2023-03-16T10:47:23.032Z,1.30
2023-03-16T10:49:51.738Z,1.33
2023-03-16T10:52:20.187Z,1.63
2023-03-16T10:54:51.832Z,2.13
2023-03-16T10:57:24.088Z,4.38
2023-03-16T10:59:51.865Z,3.40
2023-03-16T11:02:23.887Z,16.35
2023-03-16T11:04:51.231Z,3.67
2023-03-16T11:07:19.075Z,1.40
2023-03-16T11:09:48.057Z,1.98
2023-03-16T11:12:20.623Z,1.85
2023-03-16T11:14:49.282Z,2.05
2023-03-16T11:17:18.135Z,1.63
2023-03-16T11:19:51.626Z,1.50
2023-03-16T11:22:20.508Z,2.50
2023-03-16T11:24:50.891Z,2.63
2023-03-16T11:27:22.045Z,2.35
2023-03-16T11:30:09.949Z,2.60
2023-03-16T11:32:37.945Z,2.00
2023-03-16T11:35:14.922Z,2.53
2023-03-16T11:37:51.830Z,2.00
2023-03-16T11:40:29.275Z,2.03
2023-03-16T11:43:01.987Z,2.30
2023-03-16T11:45:33.046Z,2.45
2023-03-16T11:48:07.981Z,1.98
2023-03-16T11:50:43.479Z,1.98
2023-03-16T11:53:17.545Z,2.38
2023-03-16T11:55:48.068Z,2.67
2023-03-16T11:58:22.383Z,2.42
2023-03-16T12:00:53.969Z,1.95
2023-03-16T12:03:37.937Z,2.25
2023-03-16T12:06:20.736Z,2.20
2023-03-16T12:09:15.695Z,1.73
2023-03-16T12:11:46.694Z,2.15
2023-03-16T12:14:16.677Z,1.98
2023-03-16T12:16:49.866Z,3.17
2023-03-16T12:19:22.214Z,3.00
2023-03-16T12:21:54.755Z,2.23
2023-03-16T12:24:25.295Z,1.73
2023-03-16T12:26:53.479Z,2.42
2023-03-16T12:29:26.752Z,1.50
2023-03-16T12:31:56.053Z,2.10
2023-03-16T12:34:26.942Z,2.43
2023-03-16T12:37:02.790Z,2.90
2023-03-16T12:39:35.768Z,2.15
2023-03-16T12:42:11.073Z,1.98
2023-03-16T12:44:44.382Z,1.92
2023-03-16T12:47:15.476Z,2.10
2023-03-16T12:49:43.270Z,2.20
2023-03-16T12:52:12.815Z,1.98
2023-03-16T12:54:49.106Z,1.75
2023-03-16T12:57:17.254Z,2.10
2023-03-16T12:59:46.675Z,1.70
2023-03-16T13:02:16.066Z,1.85
2023-03-16T13:04:44.948Z,2.05
2023-03-16T13:07:19.030Z,1.88
2023-03-16T13:09:51.045Z,1.90
2023-03-16T13:12:26.204Z,1.30
2023-03-16T13:14:57.091Z,1.25
2023-03-16T13:17:29.052Z,1.40
2023-03-16T13:20:01.082Z,1.17
2023-03-16T13:22:30.764Z,1.40
2023-03-16T13:25:11.240Z,1.10
2023-03-16T13:27:39.292Z,0.70
2023-03-16T13:30:17.317Z,1.27
2023-03-16T13:32:44.664Z,0.95
2023-03-16T13:35:14.197Z,1.30
2023-03-16T13:37:43.736Z,1.80
2023-03-16T13:40:19.312Z,1.70
2023-03-16T13:42:47.120Z,1.40
2023-03-16T13:45:15.833Z,1.27
2023-03-16T13:47:43.335Z,1.00
2023-03-16T13:50:11.843Z,0.77
2023-03-16T13:52:40.306Z,0.88
2023-03-16T13:55:14.789Z,0.63
2023-03-16T13:57:42.446Z,1.50
2023-03-16T14:00:18.387Z,1.60
2023-03-16T14:02:46.219Z,1.37
2023-03-16T14:05:18.743Z,1.05
2023-03-16T14:07:46.741Z,1.00
2023-03-16T14:10:18.768Z,1.05
2023-03-16T14:12:52.596Z,1.40
2023-03-16T14:15:20.384Z,1.00
2023-03-16T14:17:47.630Z,1.52
2023-03-16T14:20:19.446Z,1.70
2023-03-16T14:22:47.654Z,1.58
2023-03-16T14:25:22.221Z,1.38
2023-03-16T14:27:56.981Z,1.37
2023-03-16T14:30:25.943Z,1.65
2023-03-16T14:32:58.479Z,0.90
2023-03-16T14:35:27.931Z,1.27
2023-03-16T14:37:56.737Z,0.80
2023-03-16T14:40:26.802Z,1.43
2023-03-16T14:42:55.932Z,1.60
2023-03-16T14:45:23.839Z,1.50
2023-03-16T14:47:50.933Z,1.25
2023-03-16T14:50:18.918Z,1.60
2023-03-16T14:52:46.638Z,1.97
2023-03-16T14:55:15.416Z,1.27
2023-03-16T14:57:45.755Z,1.33
2023-03-16T15:00:13.864Z,1.23
2023-03-16T15:02:42.079Z,2.17
2023-03-16T15:05:10.158Z,2.33
2023-03-16T15:07:38.876Z,1.92
2023-03-16T15:10:07.722Z,8.60
2023-03-16T15:12:35.088Z,4.20
2023-03-16T15:15:16.226Z,3.45
2023-03-16T15:17:44.298Z,7.63
2023-03-16T15:20:12.958Z,3.05
2023-03-16T15:22:40.653Z,5.35
2023-03-16T15:25:19.573Z,1.75
2023-03-16T15:27:47.711Z,1.70
2023-03-16T15:30:17.517Z,1.70
2023-03-16T15:32:44.680Z,1.40
2023-03-16T15:35:11.870Z,2.00
2023-03-16T15:37:39.255Z,1.55
2023-03-16T15:40:15.598Z,1.70
2023-03-16T15:42:45.053Z,2.20
2023-03-16T15:45:14.482Z,1.80
2023-03-16T15:47:43.376Z,2.45
2023-03-16T15:50:11.736Z,1.67
2023-03-16T15:52:39.666Z,2.58
2023-03-16T15:55:08.526Z,1.53
2023-03-16T15:57:35.673Z,1.27
2023-03-16T16:00:02.701Z,1.42
2023-03-16T16:02:31.334Z,1.70
2023-03-16T16:05:00.237Z,5.40
2023-03-16T16:07:27.467Z,16.77
2023-03-16T16:09:54.393Z,5.75
2023-03-16T16:12:26.935Z,2.97
2023-03-16T16:14:56.364Z,2.70
2023-03-16T16:17:36.497Z,2.85
2023-03-16T16:20:16.762Z,3.70
2023-03-16T16:22:44.039Z,2.38
2023-03-16T16:25:12.767Z,2.10
2023-03-16T16:27:40.337Z,2.08
2023-03-16T16:30:14.512Z,2.10
2023-03-16T16:32:41.966Z,4.30
2023-03-16T16:35:14.252Z,2.47
2023-03-16T16:37:41.320Z,2.70
2023-03-16T16:40:10.701Z,5.22
2023-03-16T16:42:37.797Z,2.83
2023-03-16T16:45:06.419Z,2.47
2023-03-16T16:47:33.411Z,2.35
2023-03-16T16:50:01.145Z,3.70
2023-03-16T16:52:29.911Z,43.00
2023-03-16T16:54:56.910Z,7.07
2023-03-16T16:57:23.933Z,3.33
2023-03-16T16:59:51.080Z,5.65
2023-03-16T17:02:23.581Z,10.05
2023-03-16T17:04:53.303Z,16.98
2023-03-16T17:07:20.771Z,22.17
2023-03-16T17:09:49.451Z,23.70
2023-03-16T17:12:21.284Z,17.40
2023-03-16T17:14:48.742Z,18.00
2023-03-16T17:17:19.162Z,18.15
2023-03-16T17:19:46.977Z,23.35
2023-03-16T17:22:19.831Z,17.97
2023-03-16T17:24:47.392Z,13.93
2023-03-16T17:27:16.964Z,12.57
2023-03-16T17:29:44.372Z,17.38
2023-03-16T17:32:16.535Z,20.17
2023-03-16T17:34:43.839Z,21.87
2023-03-16T17:37:13.357Z,35.67
2023-03-16T17:39:40.660Z,42.35
2023-03-16T17:42:12.178Z,48.50
2023-03-16T17:44:42.082Z,41.08
2023-03-16T17:47:16.310Z,32.97
2023-03-16T17:49:45.038Z,33.78
2023-03-16T17:52:13.811Z,31.10
2023-03-16T17:54:41.133Z,18.10
2023-03-16T17:57:13.647Z,16.13
2023-03-16T17:59:42.696Z,36.77
2023-03-16T18:02:21.411Z,49.60
2023-03-16T18:04:48.940Z,41.55
2023-03-16T18:07:16.036Z,38.80
2023-03-16T18:09:44.070Z,35.15
2023-03-16T18:12:11.269Z,33.83
2023-03-16T18:14:39.877Z,24.30
2023-03-16T18:17:15.998Z,20.65
2023-03-16T18:19:43.821Z,21.27
2023-03-16T18:22:15.754Z,21.80
2023-03-16T18:24:43.140Z,21.63
2023-03-16T18:27:11.368Z,22.23
2023-03-16T18:29:39.349Z,26.55
2023-03-16T18:32:11.927Z,25.48
2023-03-16T18:34:39.192Z,27.65
2023-03-16T18:37:07.570Z,19.83
2023-03-16T18:39:34.978Z,17.92
2023-03-16T18:42:03.186Z,18.33
2023-03-16T18:44:31.443Z,23.27
2023-03-16T18:47:01.296Z,20.35
2023-03-16T18:49:32.900Z,16.00
2023-03-16T18:52:00.458Z,15.20
2023-03-16T18:54:29.314Z,15.70
2023-03-16T18:56:58.980Z,16.88
2023-03-16T18:59:26.601Z,14.40
2023-03-16T19:01:53.922Z,15.60
2023-03-16T19:04:22.505Z,12.52
2023-03-16T19:06:53.566Z,11.73
2023-03-16T19:09:22.348Z,9.60
2023-03-16T19:11:49.970Z,9.50
2023-03-16T19:14:18.668Z,10.10
2023-03-16T19:16:46.754Z,10.45
2023-03-16T19:19:15.242Z,9.93
2023-03-16T19:21:43.130Z,10.18
2023-03-16T19:24:20.501Z,7.90
2023-03-16T19:26:48.324Z,11.07
2023-03-16T19:29:15.978Z,9.70
2023-03-16T19:31:43.456Z,10.65
2023-03-16T19:34:15.130Z,9.95
2023-03-16T19:36:42.481Z,8.57
2023-03-16T19:39:12.599Z,9.00
2023-03-16T19:41:41.629Z,11.10
2023-03-16T19:44:13.888Z,8.90
2023-03-16T19:46:41.628Z,6.95
2023-03-16T19:49:12.611Z,8.13
2023-03-16T19:51:40.712Z,8.93
2023-03-16T19:54:09.794Z,9.40
2023-03-16T19:56:37.577Z,8.65
2023-03-16T19:59:06.303Z,10.10
2023-03-16T20:01:33.946Z,12.40
2023-03-16T20:04:04.470Z,14.87
2023-03-16T20:06:33.672Z,14.40
2023-03-16T20:09:04.708Z,18.02
2023-03-16T20:11:32.455Z,20.83
2023-03-16T20:14:01.913Z,16.35
2023-03-16T20:16:32.390Z,16.77
2023-03-16T20:19:01.377Z,15.40
2023-03-16T20:21:30.034Z,15.68
2023-03-16T20:23:57.357Z,15.38
2023-03-16T20:26:25.693Z,13.40
2023-03-16T20:28:56.834Z,12.20
2023-03-16T20:31:25.664Z,11.95
2023-03-16T20:33:54.948Z,12.40
2023-03-16T20:36:22.657Z,14.40
2023-03-16T20:38:49.860Z,20.30
2023-03-16T20:41:18.792Z,15.87
2023-03-16T20:43:46.164Z,16.67
2023-03-16T20:46:16.391Z,20.42
2023-03-16T20:48:43.521Z,24.27
2023-03-16T20:51:15.443Z,25.77
2023-03-16T20:53:43.999Z,24.40
2023-03-16T20:56:14.627Z,25.13
2023-03-16T20:58:44.476Z,25.70
2023-03-16T21:01:17.942Z,22.38
2023-03-16T21:03:47.702Z,19.40
2023-03-16T21:06:22.562Z,14.93
2023-03-16T21:08:50.270Z,15.65
2023-03-16T21:11:20.212Z,15.15
2023-03-16T21:13:47.545Z,16.60
2023-03-16T21:16:15.535Z,12.05
2023-03-16T21:18:42.735Z,12.47
2023-03-16T21:21:13.092Z,13.23
2023-03-16T21:23:41.776Z,14.43
2023-03-16T21:26:13.632Z,13.75
2023-03-16T21:28:40.764Z,11.55
2023-03-16T21:31:08.488Z,12.83
2023-03-16T21:33:37.566Z,12.25
2023-03-16T21:36:07.621Z,10.90
2023-03-16T21:38:34.847Z,8.82
2023-03-16T21:41:03.702Z,8.75
2023-03-16T21:43:31.752Z,9.30
2023-03-16T21:45:59.697Z,9.27
2023-03-16T21:48:29.892Z,10.07
2023-03-16T21:50:57.152Z,8.95
2023-03-16T21:53:25.133Z,10.00
2023-03-16T21:55:52.426Z,10.97
2023-03-16T21:58:21.186Z,12.23
2023-03-16T22:00:48.530Z,14.32
2023-03-16T22:03:22.251Z,17.40
2023-03-16T22:05:49.264Z,16.73
2023-03-16T22:08:18.712Z,16.10
2023-03-16T22:10:45.995Z,17.02
2023-03-16T22:13:13.501Z,17.55
2023-03-16T22:15:46.049Z,16.35
2023-03-16T22:18:19.037Z,18.65
2023-03-16T22:20:46.745Z,18.03
2023-03-16T22:23:24.369Z,14.90
2023-03-16T22:25:51.586Z,13.05
2023-03-16T22:28:18.512Z,12.88
2023-03-16T22:30:47.387Z,12.85
2023-03-16T22:33:17.085Z,10.73
2023-03-16T22:35:44.359Z,9.13
2023-03-16T22:38:12.644Z,9.23
2023-03-16T22:40:40.541Z,9.32
2023-03-16T22:43:10.585Z,9.02
2023-03-16T22:45:37.571Z,7.37
2023-03-16T22:48:13.013Z,6.85
2023-03-16T22:50:40.235Z,9.30
2023-03-16T22:53:08.522Z,9.40
2023-03-16T22:55:37.010Z,9.52
2023-03-16T22:58:07.914Z,10.30
2023-03-16T23:00:37.812Z,9.88
2023-03-16T23:03:12.860Z,9.55
2023-03-16T23:05:40.163Z,8.43
2023-03-16T23:08:12.714Z,8.60
2023-03-16T23:10:39.769Z,8.60
2023-03-16T23:13:11.950Z,7.38
2023-03-16T23:15:39.259Z,7.15
2023-03-16T23:18:14.519Z,6.78
2023-03-16T23:20:41.580Z,5.70
2023-03-16T23:23:08.737Z,7.00
2023-03-16T23:25:36.234Z,6.88
2023-03-16T23:28:04.272Z,6.32
2023-03-16T23:30:31.666Z,6.80
2023-03-16T23:32:59.246Z,7.18
2023-03-16T23:35:28.735Z,6.37
2023-03-16T23:37:56.184Z,6.15
2023-03-16T23:40:24.168Z,5.78
2023-03-16T23:42:53.095Z,5.70
2023-03-16T23:45:24.865Z,5.30
2023-03-16T23:47:53.312Z,4.13
2023-03-16T23:50:22.912Z,3.55
2023-03-16T23:52:51.649Z,3.60
2023-03-16T23:55:20.213Z,3.55
2023-03-16T23:57:47.136Z,3.08
